Time;durP1;ratioP1;P1;durP2;ratioP2;P2;SDS_P1;SDS_P2;PMS_P1;PMS_P2;Temp;Humidity;BMP_temperature;BMP_pressure;BME280_temperature;BME280_humidity;BME280_pressure;Samples;Min_cycle;Max_cycle;Signal;HPM_P1;HPM_P2
2023/06/12 00:01:17;;;;;;;;;;;18.20;71.80;;;;;;5071958;28;20059;-76
2023/06/12 00:03:44;;;;;;;0.57;0.57;;;18.20;76.60;;;;;;5088412;28;19920;-76
2023/06/12 00:06:10;;;;;;;0.20;0.20;;;18.20;73.60;;;;;;5071112;28;20043;-76
2023/06/12 00:08:43;;;;;;;0.30;0.30;;;18.10;75.30;;;;;;5088991;28;20036;-76
2023/06/12 00:11:12;;;;;;;0.30;0.30;;;18.10;75.30;;;;;;5088056;28;20044;-76
2023/06/12 00:13:42;;;;;;;0.28;0.28;;;18.10;75.40;;;;;;5088455;28;20063;-76
2023/06/12 00:16:10;;;;;;;0.20;0.20;;;18.10;73.20;;;;;;5088544;28;20044;-76
2023/06/12 00:18:38;;;;;;;0.40;0.40;;;18.00;76.90;;;;;;5071292;28;20086;-75
2023/06/12 00:21:05;;;;;;;0.25;0.25;;;18.00;74.20;;;;;;5070761;28;20044;-75
2023/06/12 00:23:31;;;;;;;0.40;0.40;;;18.00;76.90;;;;;;5087997;28;20119;-76
2023/06/12 00:25:56;;;;;;;;;;;17.90;74.30;;;;;;5071319;28;20123;-76
2023/06/12 00:28:22;;;;;;;0.17;0.17;;;17.80;76.70;;;;;;5087935;28;19916;-76
2023/06/12 00:30:47;;;;;;;;;;;17.80;79.80;;;;;;5105517;28;20044;-76
2023/06/12 00:33:13;;;;;;;0.17;0.17;;;17.80;77.90;;;;;;5089962;28;19979;-76
2023/06/12 00:35:39;;;;;;;;;;;17.70;75.70;;;;;;5075830;28;20040;-75
2023/06/12 00:38:06;;;;;;;0.30;0.30;;;17.70;78.00;;;;;;5119318;27;19926;-76
2023/06/12 00:40:32;;;;;;;0.20;0.20;;;17.60;81.30;;;;;;5055170;28;20134;-76
2023/06/12 00:42:57;;;;;;;;;;;17.60;78.90;;;;;;5063976;28;20118;-76
2023/06/12 00:45:23;;;;;;;0.20;0.20;;;17.60;76.10;;;;;;5126245;27;19916;-76
2023/06/12 00:47:52;;;;;;;;;;;17.50;79.70;;;;;;5075243;28;20109;-76
2023/06/12 00:50:19;;;;;;;0.30;0.30;;;17.40;81.60;;;;;;5091793;28;19923;-76
2023/06/12 00:52:47;;;;;;;0.20;0.20;;;17.40;81.50;;;;;;5092162;28;20063;-75
2023/06/12 00:55:14;;;;;;;0.22;0.22;;;17.40;80.10;;;;;;5091719;28;20032;-76
2023/06/12 00:57:45;;;;;;;0.30;0.30;;;17.30;82.10;;;;;;5092004;28;20057;-75
2023/06/12 01:00:12;;;;;;;0.25;0.25;;;17.30;80.40;;;;;;5091239;28;20051;-75
2023/06/12 01:02:42;;;;;;;0.20;0.20;;;17.20;81.80;;;;;;5074587;28;20043;-75
2023/06/12 01:05:12;;;;;;;0.32;0.32;;;17.10;82.80;;;;;;5091590;28;20515;-75
2023/06/12 01:07:44;;;;;;;0.80;0.80;;;17.10;82.60;;;;;;5091813;28;20089;-76
2023/06/12 01:10:25;;;;;;;0.30;0.30;;;17.00;85.80;;;;;;5091825;28;20059;-76
2023/06/12 01:12:53;;;;;;;0.30;0.30;;;17.00;88.50;;;;;;5075502;28;20082;-75
2023/06/12 01:15:18;;;;;;;0.22;0.22;;;16.90;87.70;;;;;;5075740;28;20429;-75
2023/06/12 01:17:44;;;;;;;;;;;16.90;86.10;;;;;;5092380;28;20118;-75
2023/06/12 01:20:12;;;;;;;0.20;0.20;;;16.80;87.00;;;;;;5091466;28;19923;-76
2023/06/12 01:22:43;;;;;;;0.30;0.30;;;16.70;86.20;;;;;;5090868;28;20056;-75
2023/06/12 01:25:45;;;;;;;0.22;0.22;;;16.70;89.40;;;;;;5091383;28;20401;-75
2023/06/12 01:28:28;;;;;;;0.20;0.20;;;16.60;91.20;;;;;;5077513;28;20074;-76
2023/06/12 01:31:13;;;;;;;0.20;0.20;;;16.60;90.50;;;;;;5091102;28;20186;-76
2023/06/12 01:33:44;;;;;;;0.10;0.10;;;16.50;91.80;;;;;;5125357;27;20427;-75
2023/06/12 01:36:14;;;;;;;0.20;0.20;;;16.40;90.80;;;;;;5073741;28;20085;-75
2023/06/12 01:38:41;;;;;;;0.20;0.20;;;16.30;91.80;;;;;;5091149;28;20055;-76
2023/06/12 01:41:09;;;;;;;0.30;0.30;;;16.30;92.50;;;;;;5090396;28;20040;-75
2023/06/12 01:43:36;;;;;;;0.20;0.20;;;16.20;93.00;;;;;;5073872;28;20496;-75
2023/06/12 01:46:03;;;;;;;0.20;0.20;;;16.10;93.50;;;;;;5090840;28;20047;-75
2023/06/12 01:48:29;;;;;;;0.22;0.22;;;16.00;94.50;;;;;;5090966;28;20514;-75
2023/06/12 01:50:54;;;;;;;;;;;15.90;95.60;;;;;;5091105;28;20094;-75
2023/06/12 01:53:21;;;;;;;0.30;0.30;;;15.80;96.40;;;;;;5073762;28;20388;-75
2023/06/12 01:55:49;;;;;;;1.20;1.10;;;15.70;97.60;;;;;;5090527;28;20059;-75
2023/06/12 01:58:15;;;;;;;0.30;0.30;;;15.60;98.30;;;;;;5090403;28;20050;-75
2023/06/12 02:00:42;;;;;;;;;;;15.60;98.80;;;;;;5057315;28;20486;-75
2023/06/12 02:03:08;;;;;;;0.20;0.20;;;15.50;99.90;;;;;;5090085;28;20366;-76
2023/06/12 02:05:33;;;;;;;;;;;15.40;99.90;;;;;;5090655;28;20089;-75
2023/06/12 02:07:59;;;;;;;0.30;0.30;;;15.30;99.90;;;;;;5073332;28;19916;-75
2023/06/12 02:10:25;;;;;;;;;;;15.20;99.90;;;;;;5074156;28;20040;-76
2023/06/12 02:12:51;;;;;;;0.20;0.20;;;15.20;99.90;;;;;;5090582;28;20325;-75
2023/06/12 02:15:18;;;;;;;;;;;15.10;99.90;;;;;;5090084;28;20047;-75
2023/06/12 02:17:44;;;;;;;0.20;0.20;;;15.00;99.90;;;;;;5089961;28;19924;-75
2023/06/12 02:20:10;;;;;;;;;;;15.00;99.90;;;;;;5090258;28;20051;-75
2023/06/12 02:22:35;;;;;;;0.40;0.40;;;15.00;99.90;;;;;;5089842;28;19924;-75
2023/06/12 02:25:02;;;;;;;0.22;0.22;;;15.00;99.90;;;;;;5072945;28;20101;-75
2023/06/12 02:27:28;;;;;;;0.20;0.20;;;15.00;99.90;;;;;;5106847;28;20036;-75
2023/06/12 02:29:53;;;;;;;;;;;15.00;99.90;;;;;;5073444;28;20036;-75
2023/06/12 02:32:19;;;;;;;0.30;0.30;;;15.00;99.90;;;;;;5089999;28;19923;-75
2023/06/12 02:34:45;;;;;;;0.20;0.20;;;15.00;99.90;;;;;;5073477;28;20044;-76
2023/06/12 02:37:10;;;;;;;0.20;0.20;;;14.90;99.90;;;;;;5072771;28;20044;-75
2023/06/12 02:39:36;;;;;;;;;;;14.90;99.90;;;;;;5090203;28;20043;-75
2023/06/12 02:42:02;;;;;;;0.30;0.30;;;14.80;99.90;;;;;;5089656;28;19982;-75
2023/06/12 02:44:27;;;;;;;;;;;14.80;99.90;;;;;;5090026;28;20378;-75
2023/06/12 02:46:58;;;;;;;0.20;0.20;;;14.70;99.90;;;;;;5089870;28;19916;-75
2023/06/12 02:49:26;;;;;;;0.20;0.20;;;14.60;99.90;;;;;;5090142;28;20031;-75
2023/06/12 02:51:52;;;;;;;0.20;0.20;;;14.60;99.90;;;;;;5090079;28;20357;-75
2023/06/12 02:54:20;;;;;;;;;;;14.60;99.90;;;;;;5089866;28;20438;-75
2023/06/12 02:56:46;;;;;;;0.45;0.45;;;14.50;99.90;;;;;;5088406;28;19916;-75
2023/06/12 02:59:23;;;;;;;0.30;0.30;;;14.50;99.90;;;;;;5088479;28;20145;-75
2023/06/12 03:01:49;;;;;;;;;;;14.50;99.90;;;;;;5072256;28;20097;-75
2023/06/12 03:04:18;;;;;;;0.30;0.30;;;14.40;99.90;;;;;;5087998;28;19923;-74
2023/06/12 03:06:45;;;;;;;0.20;0.20;;;14.40;99.90;;;;;;5088348;28;20047;-75
2023/06/12 03:09:10;;;;;;;;;;;14.40;99.90;;;;;;5088719;28;20143;-74
2023/06/12 03:11:37;;;;;;;0.30;0.30;;;14.40;99.90;;;;;;5089080;28;20421;-74
2023/06/12 03:14:04;;;;;;;0.20;0.20;;;14.40;99.90;;;;;;5072067;28;20043;-75
2023/06/12 03:16:31;;;;;;;0.25;0.25;;;14.30;99.90;;;;;;5090102;28;20090;-75
2023/06/12 03:18:57;;;;;;;0.25;0.25;;;14.40;99.90;;;;;;5089029;28;20048;-75
2023/06/12 03:21:23;;;;;;;5.38;0.73;;;14.40;99.90;;;;;;5055212;28;20117;-75
2023/06/12 03:23:48;;;;;;;;;;;14.40;99.90;;;;;;5089236;28;20098;-75
2023/06/12 03:26:15;;;;;;;0.20;0.20;;;14.40;99.90;;;;;;5086354;28;20354;-75
2023/06/12 03:28:41;;;;;;;0.30;0.30;;;14.40;99.90;;;;;;5088949;28;20040;-75
2023/06/12 03:31:07;;;;;;;0.32;0.32;;;14.50;99.90;;;;;;5088280;28;20073;-75
2023/06/12 03:33:33;;;;;;;0.20;0.20;;;14.40;99.90;;;;;;5088670;28;20067;-74
2023/06/12 03:35:58;;;;;;;0.20;0.20;;;14.50;99.90;;;;;;5088762;28;20039;-74
2023/06/12 03:38:24;;;;;;;;;;;14.60;99.90;;;;;;5071914;28;20044;-74
2023/06/12 03:40:50;;;;;;;0.20;0.20;;;14.60;99.90;;;;;;5088335;28;20308;-75
2023/06/12 03:43:15;;;;;;;;;;;14.60;99.90;;;;;;5105524;28;20039;-75
2023/06/12 03:45:41;;;;;;;0.30;0.30;;;14.70;99.90;;;;;;5071678;28;19919;-75
2023/06/12 03:48:06;;;;;;;0.20;0.20;;;14.70;99.90;;;;;;5071622;28;20032;-74
2023/06/12 03:50:32;;;;;;;0.40;0.40;;;14.80;99.90;;;;;;5071919;28;20043;-75
2023/06/12 03:52:58;;;;;;;;;;;14.80;99.90;;;;;;5072161;28;20608;-75
2023/06/12 03:55:24;;;;;;;0.20;0.20;;;14.80;99.90;;;;;;5089105;28;19920;-74
2023/06/12 03:57:50;;;;;;;0.20;0.20;;;14.90;99.90;;;;;;5072944;28;20040;-74
2023/06/12 04:00:16;;;;;;;;;;;14.90;99.90;;;;;;5089103;28;20050;-74
2023/06/12 04:02:43;;;;;;;0.28;0.28;;;15.00;99.90;;;;;;5088464;28;19923;-74
2023/06/12 04:05:08;;;;;;;0.50;0.50;;;15.00;99.90;;;;;;5088599;28;20065;-74
2023/06/12 04:07:37;;;;;;;;;;;15.10;99.90;;;;;;5089132;28;20501;-75
2023/06/12 04:10:04;;;;;;;0.25;0.25;;;15.10;99.90;;;;;;5088488;28;19962;-74
2023/06/12 04:12:30;;;;;;;0.63;0.63;;;15.20;99.90;;;;;;5089560;28;20052;-75
2023/06/12 04:14:56;;;;;;;0.20;0.20;;;15.20;99.90;;;;;;5089228;28;20036;-75
2023/06/12 04:17:22;;;;;;;;;;;15.20;99.90;;;;;;5088910;28;20051;-75
2023/06/12 04:19:49;;;;;;;0.40;0.40;;;15.20;99.90;;;;;;5089018;28;20027;-75
2023/06/12 04:22:16;;;;;;;0.28;0.28;;;15.30;99.90;;;;;;5072368;28;20481;-73
2023/06/12 04:24:45;;;;;;;0.30;0.30;;;15.40;99.90;;;;;;5056011;28;20087;-74
2023/06/12 04:27:11;;;;;;;0.20;0.20;;;15.40;99.90;;;;;;5088870;28;20036;-74
2023/06/12 04:29:38;;;;;;;0.35;0.35;;;15.50;99.90;;;;;;5073221;28;20036;-75
2023/06/12 04:32:06;;;;;;;0.20;0.20;;;15.50;99.90;;;;;;5089376;28;20085;-74
2023/06/12 04:34:39;;;;;;;1.20;1.10;;;15.60;99.90;;;;;;5123058;28;20060;-75
2023/06/12 04:37:08;;;;;;;0.20;0.20;;;15.60;99.90;;;;;;5088872;28;20056;-75
2023/06/12 04:39:38;;;;;;;0.30;0.30;;;15.70;99.90;;;;;;5089230;28;20051;-74
2023/06/12 04:42:05;;;;;;;0.30;0.30;;;15.70;99.90;;;;;;5089513;28;20040;-75
2023/06/12 04:44:35;;;;;;;0.55;0.55;;;15.80;99.90;;;;;;5071919;28;20055;-74
2023/06/12 04:47:04;;;;;;;0.20;0.20;;;15.80;99.90;;;;;;5088584;28;20032;-74
2023/06/12 04:49:32;;;;;;;0.30;0.30;;;15.90;99.90;;;;;;5088401;28;20504;-74
2023/06/12 04:52:00;;;;;;;0.40;0.40;;;15.90;99.90;;;;;;5088357;28;20485;-74
2023/06/12 04:54:28;;;;;;;0.20;0.20;;;15.90;99.90;;;;;;5087786;28;20481;-75
2023/06/12 04:56:54;;;;;;;0.20;0.20;;;16.00;99.90;;;;;;5071513;28;20137;-74
2023/06/12 04:59:20;;;;;;;;;;;16.10;99.90;;;;;;5071536;28;20554;-74
2023/06/12 05:01:47;;;;;;;0.40;0.40;;;16.10;99.90;;;;;;5087973;28;20319;-75
2023/06/12 05:04:12;;;;;;;0.30;0.30;;;16.20;99.90;;;;;;5088137;28;20097;-75
2023/06/12 05:06:39;;;;;;;;;;;16.20;99.90;;;;;;5088553;28;20048;-75
2023/06/12 05:09:07;;;;;;;0.90;0.63;;;16.30;99.90;;;;;;5071236;28;19916;-75
2023/06/12 05:11:33;;;;;;;0.30;0.30;;;16.30;99.90;;;;;;5087510;28;20760;-75
2023/06/12 05:13:58;;;;;;;;;;;16.40;99.90;;;;;;5088512;28;20119;-75
2023/06/12 05:16:24;;;;;;;0.20;0.20;;;16.30;99.90;;;;;;5087625;28;19919;-75
2023/06/12 05:18:50;;;;;;;;;;;16.30;99.90;;;;;;5089137;28;20086;-75
2023/06/12 05:21:18;;;;;;;0.30;0.30;;;16.30;99.90;;;;;;5091040;28;19927;-75
2023/06/12 05:23:44;;;;;;;0.75;0.75;;;16.30;99.90;;;;;;5074161;28;20159;-75
2023/06/12 05:26:10;;;;;;;;;;;16.30;99.90;;;;;;5091404;28;20466;-75
2023/06/12 05:28:36;;;;;;;0.65;0.65;;;16.30;99.90;;;;;;5074225;28;20304;-75
2023/06/12 05:31:04;;;;;;;;;;;16.40;99.90;;;;;;5092111;28;20058;-75
2023/06/12 05:33:30;;;;;;;1.00;1.00;;;16.50;99.90;;;;;;5091002;28;20011;-75
2023/06/12 05:35:55;;;;;;;;;;;16.50;99.90;;;;;;5091707;28;20134;-75
2023/06/12 05:38:22;;;;;;;0.45;0.30;;;16.60;99.90;;;;;;5090621;28;20397;-75
2023/06/12 05:40:47;;;;;;;0.20;0.20;;;16.70;99.90;;;;;;5091233;28;20055;-75
2023/06/12 05:43:13;;;;;;;;;;;16.80;99.90;;;;;;5091409;28;20044;-75
2023/06/12 05:45:39;;;;;;;0.30;0.30;;;16.80;99.90;;;;;;5091172;28;20416;-75
2023/06/12 05:48:05;;;;;;;;;;;16.90;99.90;;;;;;5074459;28;20046;-75
2023/06/12 05:50:30;;;;;;;0.20;0.20;;;16.90;99.90;;;;;;5090382;28;19916;-75
2023/06/12 05:52:56;;;;;;;;;;;17.00;99.90;;;;;;5090861;28;20113;-75
2023/06/12 05:55:21;;;;;;;0.20;0.20;;;17.10;99.90;;;;;;5073663;28;20392;-75
2023/06/12 05:57:47;;;;;;;;;;;17.20;99.90;;;;;;5091521;28;20101;-75
2023/06/12 06:00:13;;;;;;;0.22;0.22;;;17.30;99.90;;;;;;5090489;28;19916;-75
2023/06/12 06:02:39;;;;;;;0.10;0.10;;;17.30;99.90;;;;;;5073589;28;20127;-76
2023/06/12 06:05:09;;;;;;;;;;;17.40;99.90;;;;;;5091067;28;20467;-75
2023/06/12 06:07:36;;;;;;;0.20;0.20;;;17.50;99.90;;;;;;5090568;28;19927;-76
2023/06/12 06:10:04;;;;;;;0.70;0.60;;;17.60;99.90;;;;;;5074406;28;20052;-75
2023/06/12 06:12:29;;;;;;;0.40;0.40;;;17.60;99.90;;;;;;5073854;28;20044;-75
2023/06/12 06:14:55;;;;;;;;;;;17.70;99.90;;;;;;5073995;28;20454;-75
2023/06/12 06:17:20;;;;;;;0.20;0.20;;;17.80;99.90;;;;;;5090149;28;19971;-75
2023/06/12 06:19:46;;;;;;;;;;;17.90;99.90;;;;;;5090885;28;20044;-75
2023/06/12 06:22:12;;;;;;;0.30;0.30;;;18.00;99.90;;;;;;5073604;28;20298;-75
2023/06/12 06:24:37;;;;;;;;;;;18.10;99.90;;;;;;5073742;28;20105;-76
2023/06/12 06:27:03;;;;;;;0.10;0.10;;;18.20;99.90;;;;;;5090440;28;19955;-75
2023/06/12 06:29:29;;;;;;;0.30;0.30;;;18.20;99.90;;;;;;5106471;28;20435;-75
2023/06/12 06:31:55;;;;;;;;;;;18.30;99.90;;;;;;5055979;28;20036;-76
2023/06/12 06:34:21;;;;;;;0.50;0.50;;;18.40;99.90;;;;;;5089879;28;20022;-75
2023/06/12 06:36:47;;;;;;;0.32;0.30;;;18.50;99.90;;;;;;5057051;28;20174;-76
2023/06/12 06:39:12;;;;;;;;;;;18.50;99.90;;;;;;5073991;28;20086;-76
2023/06/12 06:41:38;;;;;;;0.20;0.20;;;18.60;99.90;;;;;;5072497;28;20373;-76
2023/06/12 06:44:04;;;;;;;;;;;18.70;99.90;;;;;;5090345;28;20039;-75
2023/06/12 06:46:29;;;;;;;0.20;0.20;;;18.90;99.90;;;;;;5055771;28;19966;-76
2023/06/12 06:48:55;;;;;;;;;;;19.00;99.90;;;;;;5090196;28;20080;-76
2023/06/12 06:51:21;;;;;;;0.22;0.22;;;19.20;99.90;;;;;;5093423;28;19953;-75
2023/06/12 06:53:46;;;;;;;;;;;19.40;99.90;;;;;;5085021;28;20079;-76
2023/06/12 06:56:12;;;;;;;0.70;0.68;;;19.60;99.90;;;;;;5089561;28;19927;-75
2023/06/12 06:58:37;;;;;;;;;;;19.60;99.90;;;;;;5056601;28;20040;-76
2023/06/12 07:01:03;;;;;;;0.50;0.50;;;20.00;99.90;;;;;;5072239;28;20061;-75
2023/06/12 07:03:29;;;;;;;;;;;20.10;99.90;;;;;;5075106;28;20416;-75
2023/06/12 07:05:54;;;;;;;0.13;0.13;;;20.20;99.90;;;;;;5090401;28;19920;-75
2023/06/12 07:08:20;;;;;;;0.30;0.30;;;20.30;99.90;;;;;;5093787;28;20044;-75
2023/06/12 07:10:46;;;;;;;0.40;0.40;;;20.40;99.90;;;;;;5056981;28;20042;-76
2023/06/12 07:13:12;;;;;;;;;;;20.50;99.90;;;;;;5089744;28;20040;-76
2023/06/12 07:15:37;;;;;;;0.30;0.30;;;20.70;99.90;;;;;;5106493;28;19916;-76
2023/06/12 07:18:03;;;;;;;0.20;0.20;;;20.70;99.90;;;;;;5089251;28;20622;-75
2023/06/12 07:20:29;;;;;;;1.70;0.57;;;20.80;99.90;;;;;;5071670;28;20075;-76
2023/06/12 07:22:55;;;;;;;;;;;21.00;99.90;;;;;;5076232;28;20177;-76
2023/06/12 07:25:20;;;;;;;0.52;0.52;;;21.10;99.90;;;;;;5089262;28;19920;-76
2023/06/12 07:27:46;;;;;;;0.30;0.30;;;21.30;99.90;;;;;;5089386;28;20366;-74
2023/06/12 07:30:12;;;;;;;0.25;0.25;;;21.30;99.90;;;;;;5072337;28;20048;-76
2023/06/12 07:32:38;;;;;;;0.20;0.20;;;21.40;99.90;;;;;;5088974;28;20048;-76
2023/06/12 07:35:05;;;;;;;0.30;0.30;;;21.40;99.90;;;;;;5088574;28;20044;-76
2023/06/12 07:37:35;;;;;;;0.25;0.25;;;21.40;99.90;;;;;;5074373;28;20090;-76
2023/06/12 07:40:03;;;;;;;0.55;0.55;;;21.50;99.90;;;;;;5088990;28;20047;-76
2023/06/12 07:42:29;;;;;;;0.13;0.13;;;21.70;99.90;;;;;;5071430;28;20127;-75
2023/06/12 07:44:55;;;;;;;0.20;0.20;;;21.80;99.90;;;;;;5088659;28;20123;-75
2023/06/12 07:47:20;;;;;;;0.77;0.77;;;21.80;99.90;;;;;;5088489;28;20085;-76
2023/06/12 07:49:46;;;;;;;0.30;0.30;;;21.90;99.90;;;;;;5071820;28;20040;-76
2023/06/12 07:52:12;;;;;;;0.47;0.47;;;21.90;99.90;;;;;;5099890;28;20083;-76
2023/06/12 07:54:37;;;;;;;0.20;0.20;;;22.00;99.90;;;;;;5075551;28;20059;-76
2023/06/12 07:57:04;;;;;;;0.45;0.45;;;22.10;99.90;;;;;;5088364;28;20096;-76
2023/06/12 07:59:29;;;;;;;0.40;0.40;;;22.20;99.90;;;;;;5054481;28;20054;-76
2023/06/12 08:01:56;;;;;;;0.22;0.22;;;22.30;99.90;;;;;;5088393;28;20404;-75
2023/06/12 08:04:21;;;;;;;0.35;0.35;;;22.40;99.90;;;;;;5072199;28;20032;-76
2023/06/12 08:06:47;;;;;;;0.28;0.28;;;22.50;99.90;;;;;;5071536;28;20193;-76
2023/06/12 08:09:13;;;;;;;0.38;0.38;;;22.60;99.90;;;;;;5088273;28;20311;-76
2023/06/12 08:11:40;;;;;;;0.13;0.13;;;22.70;99.90;;;;;;5071130;28;20174;-76
2023/06/12 08:14:06;;;;;;;0.15;0.15;;;22.70;99.90;;;;;;5071595;28;20122;-76
2023/06/12 08:16:32;;;;;;;0.30;0.30;;;22.70;99.90;;;;;;5070891;28;20522;-76
2023/06/12 08:18:58;;;;;;;0.70;0.70;;;22.80;99.90;;;;;;5091827;28;20287;-76
2023/06/12 08:21:25;;;;;;;2.17;1.00;;;22.80;99.90;;;;;;5071264;28;20401;-76
2023/06/12 08:23:51;;;;;;;0.22;0.22;;;22.90;99.90;;;;;;5075222;28;20469;-76
2023/06/12 08:26:17;;;;;;;0.10;0.10;;;23.00;99.90;;;;;;5068427;28;20056;-76
2023/06/12 08:28:48;;;;;;;0.20;0.20;;;23.10;99.90;;;;;;5067829;28;20040;-77
2023/06/12 08:31:14;;;;;;;0.30;0.30;;;23.10;99.90;;;;;;5068010;28;20496;-76
2023/06/12 08:33:40;;;;;;;0.30;0.30;;;23.20;99.90;;;;;;5054140;28;20039;-75
2023/06/12 08:36:06;;;;;;;0.47;0.45;;;23.40;99.90;;;;;;5054790;28;20044;-75
2023/06/12 08:38:31;;;;;;;0.32;0.32;;;23.50;99.90;;;;;;5087526;28;20477;-76
2023/06/12 08:41:00;;;;;;;0.10;0.10;;;23.60;99.90;;;;;;5071276;28;20517;-76
2023/06/12 08:43:28;;;;;;;0.30;0.30;;;23.70;99.90;;;;;;5087984;28;20481;-75
2023/06/12 08:45:56;;;;;;;0.30;0.30;;;23.80;99.90;;;;;;5088094;28;20145;-76
2023/06/12 08:48:25;;;;;;;0.55;0.55;;;23.90;99.90;;;;;;5087973;28;20083;-76
2023/06/12 08:50:52;;;;;;;0.38;0.38;;;24.00;99.90;;;;;;5071293;28;20067;-76
2023/06/12 08:53:18;;;;;;;0.25;0.25;;;24.10;99.90;;;;;;5072960;28;20077;-76
2023/06/12 08:55:44;;;;;;;0.28;0.28;;;24.10;99.90;;;;;;5074808;28;20036;-76
2023/06/12 08:58:11;;;;;;;0.32;0.30;;;24.10;99.90;;;;;;5074723;28;20043;-76
2023/06/12 09:00:37;;;;;;;0.60;0.60;;;24.10;99.90;;;;;;5091281;28;20051;-77
2023/06/12 09:03:07;;;;;;;0.30;0.30;;;24.10;99.90;;;;;;5092115;28;20048;-76
2023/06/12 09:05:37;;;;;;;0.30;0.30;;;24.10;99.90;;;;;;5093638;28;20075;-76
2023/06/12 09:08:04;;;;;;;0.35;0.35;;;24.10;99.90;;;;;;5091739;28;20101;-76
2023/06/12 09:10:35;;;;;;;1.08;0.45;;;24.20;99.90;;;;;;5092215;28;20157;-75
2023/06/12 09:13:06;;;;;;;0.20;0.20;;;24.30;98.60;;;;;;5092114;28;20481;-76
2023/06/12 09:15:32;;;;;;;0.20;0.20;;;24.20;98.40;;;;;;5091701;28;20055;-76
2023/06/12 09:17:58;;;;;;;0.40;0.40;;;24.20;99.00;;;;;;5091929;28;20044;-76
2023/06/12 09:20:29;;;;;;;0.52;0.50;;;24.30;98.30;;;;;;5091377;28;20485;-76
2023/06/12 09:23:03;;;;;;;0.40;0.32;;;24.40;98.40;;;;;;5091484;28;20536;-76
2023/06/12 09:25:43;;;;;;;0.20;0.20;;;24.60;96.50;;;;;;5091304;28;20398;-76
2023/06/12 09:28:10;;;;;;;0.45;0.45;;;24.60;96.40;;;;;;5074694;28;20120;-76
2023/06/12 09:30:39;;;;;;;0.25;0.25;;;24.70;97.50;;;;;;5108517;28;20457;-77
2023/06/12 09:33:06;;;;;;;0.77;0.77;;;24.80;96.60;;;;;;5125390;27;20036;-77
2023/06/12 09:35:32;;;;;;;0.38;0.35;;;24.80;97.70;;;;;;5073805;28;20060;-76
2023/06/12 09:37:58;;;;;;;0.77;0.77;;;24.90;97.40;;;;;;5091124;28;20302;-76
2023/06/12 09:40:24;;;;;;;0.20;0.20;;;25.00;97.00;;;;;;5091392;28;20036;-76
2023/06/12 09:42:50;;;;;;;0.40;0.40;;;25.10;96.10;;;;;;5090531;28;20451;-77
2023/06/12 09:45:25;;;;;;;0.85;0.85;;;25.20;96.70;;;;;;5074060;28;20080;-77
2023/06/12 09:47:52;;;;;;;0.20;0.20;;;25.30;94.90;;;;;;5091683;28;20048;-76
2023/06/12 09:50:19;;;;;;;0.20;0.20;;;25.30;96.10;;;;;;5075882;28;20442;-76
2023/06/12 09:52:47;;;;;;;0.40;0.40;;;25.50;96.90;;;;;;5091896;28;20075;-76
2023/06/12 09:55:17;;;;;;;0.20;0.20;;;25.50;95.30;;;;;;5104914;28;20045;-76
2023/06/12 09:57:50;;;;;;;0.22;0.22;;;25.60;95.00;;;;;;5037178;28;20040;-76
2023/06/12 10:00:17;;;;;;;0.68;0.68;;;25.60;95.70;;;;;;5057887;28;20043;-76
2023/06/12 10:02:53;;;;;;;0.35;0.35;;;25.60;95.40;;;;;;5074180;28;20074;-77
2023/06/12 10:05:35;;;;;;;0.20;0.20;;;25.70;95.20;;;;;;5074418;28;20043;-77
2023/06/12 10:08:03;;;;;;;0.40;0.40;;;25.90;94.90;;;;;;5074962;28;20040;-77
2023/06/12 10:10:35;;;;;;;0.30;0.30;;;26.00;95.40;;;;;;5091443;28;20073;-77
2023/06/12 10:13:03;;;;;;;0.52;0.52;;;26.10;95.30;;;;;;5090393;28;20048;-76
2023/06/12 10:15:32;;;;;;;0.63;0.63;;;26.20;95.30;;;;;;5090528;28;20105;-77
2023/06/12 10:17:58;;;;;;;0.68;0.68;;;26.30;94.70;;;;;;5090837;28;20044;-76
2023/06/12 10:20:25;;;;;;;0.52;0.52;;;26.50;93.40;;;;;;5073301;28;20044;-76
2023/06/12 10:22:55;;;;;;;0.47;0.47;;;26.40;92.50;;;;;;5073011;28;20398;-77
2023/06/12 10:25:22;;;;;;;1.08;1.02;;;26.40;92.80;;;;;;5086631;28;20041;-77
2023/06/12 10:27:48;;;;;;;0.30;0.30;;;26.50;92.40;;;;;;5087231;28;20411;-77
2023/06/12 10:30:16;;;;;;;0.20;0.20;;;26.50;93.70;;;;;;5070218;28;20036;-77
2023/06/12 10:32:43;;;;;;;0.20;0.20;;;26.60;91.90;;;;;;5069738;28;20048;-77
2023/06/12 10:35:09;;;;;;;0.52;0.40;;;26.60;91.90;;;;;;5085293;28;20056;-77
2023/06/12 10:37:46;;;;;;;0.28;0.20;;;26.70;92.10;;;;;;5072510;28;20039;-76
2023/06/12 10:40:16;;;;;;;0.38;0.38;;;26.80;92.30;;;;;;5090176;28;20424;-77
2023/06/12 10:42:45;;;;;;;2.03;1.15;;;27.00;91.00;;;;;;5089386;28;20501;-76
2023/06/12 10:45:23;;;;;;;0.35;0.35;;;27.10;91.30;;;;;;5089747;28;20043;-77
2023/06/12 10:48:10;;;;;;;0.30;0.30;;;27.10;89.70;;;;;;5089001;28;20042;-76
2023/06/12 10:50:50;;;;;;;0.30;0.30;;;27.20;90.50;;;;;;5089543;28;20048;-77
2023/06/12 10:53:26;;;;;;;0.47;0.47;;;27.30;90.40;;;;;;5089638;28;20043;-76
2023/06/12 10:56:10;;;;;;;0.20;0.20;;;27.30;90.00;;;;;;5089639;28;20048;-76
2023/06/12 10:58:41;;;;;;;0.30;0.30;;;27.50;88.60;;;;;;5069156;28;20399;-76
2023/06/12 11:01:09;;;;;;;0.77;0.60;;;27.70;88.70;;;;;;5085947;28;20108;-76
2023/06/12 11:03:38;;;;;;;0.20;0.20;;;27.90;89.00;;;;;;5052977;28;20393;-76
2023/06/12 11:06:12;;;;;;;0.60;0.60;;;27.90;87.70;;;;;;5069352;28;20048;-76
2023/06/12 11:08:40;;;;;;;1.25;1.15;;;28.00;86.40;;;;;;5070834;28;20042;-77
2023/06/12 11:11:07;;;;;;;0.93;0.85;;;28.20;84.90;;;;;;5090786;28;20568;-76
2023/06/12 11:13:33;;;;;;;0.20;0.20;;;28.40;87.00;;;;;;5089107;28;20072;-77
2023/06/12 11:15:58;;;;;;;0.63;0.63;;;28.50;84.00;;;;;;5054780;28;20085;-76
2023/06/12 11:18:24;;;;;;;0.85;0.85;;;28.60;83.90;;;;;;5072040;28;20055;-76
2023/06/12 11:20:54;;;;;;;0.20;0.20;;;28.80;83.10;;;;;;5071983;28;20472;-77
2023/06/12 11:23:25;;;;;;;0.30;0.30;;;28.90;82.00;;;;;;5072113;28;20059;-76
2023/06/12 11:25:53;;;;;;;0.30;0.30;;;29.10;81.00;;;;;;5072226;28;20055;-77
2023/06/12 11:28:28;;;;;;;0.75;0.75;;;29.10;80.10;;;;;;5072000;28;20044;-77
2023/06/12 11:30:54;;;;;;;0.60;0.60;;;29.30;80.40;;;;;;5071824;28;20043;-76
2023/06/12 11:33:20;;;;;;;0.38;0.32;;;29.50;80.10;;;;;;5072060;28;20044;-76
2023/06/12 11:35:48;;;;;;;0.22;0.22;;;29.50;78.10;;;;;;5088772;28;20038;-76
2023/06/12 11:38:22;;;;;;;0.40;0.40;;;29.60;74.80;;;;;;5089124;28;20048;-76
2023/06/12 11:40:51;;;;;;;0.50;0.50;;;29.60;71.50;;;;;;5088393;28;20122;-77
2023/06/12 11:43:19;;;;;;;0.35;0.35;;;29.50;74.00;;;;;;5088822;28;20101;-77
2023/06/12 11:45:45;;;;;;;0.95;0.70;;;29.50;76.40;;;;;;5089100;28;20150;-76
2023/06/12 11:48:16;;;;;;;0.65;0.65;;;29.50;73.30;;;;;;5071896;28;20536;-77
2023/06/12 11:50:44;;;;;;;0.20;0.20;;;29.60;77.50;;;;;;5088144;28;20613;-76
2023/06/12 11:53:11;;;;;;;0.40;0.40;;;29.80;75.00;;;;;;5072105;28;20674;-76
2023/06/12 11:55:37;;;;;;;0.80;0.47;;;30.10;74.40;;;;;;5088717;28;20097;-76
2023/06/12 11:58:04;;;;;;;0.30;0.30;;;30.40;72.50;;;;;;5088777;28;20105;-76
2023/06/12 12:00:32;;;;;;;0.40;0.40;;;30.70;69.80;;;;;;5088484;28;20047;-76
2023/06/12 12:03:02;;;;;;;1.38;0.80;;;30.70;71.60;;;;;;5071214;28;20040;-76
2023/06/12 12:05:37;;;;;;;0.45;0.45;;;30.70;70.30;;;;;;5072019;28;20374;-77
2023/06/12 12:08:04;;;;;;;0.50;0.50;;;30.80;72.70;;;;;;5088330;28;20055;-77
2023/06/12 12:10:39;;;;;;;0.73;0.73;;;30.90;70.90;;;;;;5071662;28;20076;-77
2023/06/12 12:13:06;;;;;;;0.70;0.50;;;31.10;71.20;;;;;;5072233;28;20046;-77
2023/06/12 12:15:38;;;;;;;2.15;0.32;;;31.50;69.50;;;;;;5088654;28;20048;-77
2023/06/12 12:18:09;;;;;;;0.52;0.30;;;31.60;69.80;;;;;;5071577;28;20055;-77
2023/06/12 12:20:35;;;;;;;0.65;0.65;;;31.60;70.00;;;;;;5088509;28;20044;-77
2023/06/12 12:23:04;;;;;;;0.43;0.43;;;31.50;67.00;;;;;;5054309;28;20056;-76
2023/06/12 12:25:32;;;;;;;0.85;0.55;;;31.60;67.90;;;;;;5067971;28;20530;-77
2023/06/12 12:28:03;;;;;;;0.35;0.35;;;31.70;64.60;;;;;;5035349;28;20032;-77
2023/06/12 12:30:30;;;;;;;0.20;0.20;;;32.10;65.40;;;;;;5072530;28;20041;-77
2023/06/12 12:32:57;;;;;;;0.60;0.52;;;32.40;66.10;;;;;;5056621;28;20041;-77
2023/06/12 12:35:24;;;;;;;0.30;0.30;;;32.70;61.40;;;;;;5090985;28;20139;-78
2023/06/12 12:37:51;;;;;;;0.28;0.20;;;32.80;61.60;;;;;;5059256;28;20365;-78
2023/06/12 12:40:17;;;;;;;0.52;0.52;;;33.10;64.50;;;;;;5093024;28;20044;-77
2023/06/12 12:42:45;;;;;;;0.40;0.40;;;33.40;62.80;;;;;;5075246;28;20047;-77
2023/06/12 12:45:12;;;;;;;0.73;0.57;;;33.40;68.10;;;;;;5092369;28;20044;-77
2023/06/12 12:47:44;;;;;;;0.43;0.40;;;33.50;59.00;;;;;;5092651;28;20036;-77
2023/06/12 12:50:11;;;;;;;0.73;0.70;;;33.40;58.30;;;;;;5086550;28;20227;-77
2023/06/12 12:52:37;;;;;;;0.30;0.30;;;33.50;56.80;;;;;;5072365;28;20079;-78
2023/06/12 12:55:06;;;;;;;0.10;0.10;;;33.50;63.10;;;;;;5091261;28;20058;-77
2023/06/12 12:57:36;;;;;;;0.30;0.30;;;33.60;58.70;;;;;;5092312;28;20144;-78
2023/06/12 13:00:06;;;;;;;0.28;0.28;;;33.80;56.70;;;;;;5091687;28;20062;-77
2023/06/12 13:02:32;;;;;;;0.20;0.20;;;34.20;58.60;;;;;;5074909;28;20109;-77